sensor_id;sensor_type;location;lat;lon;timestamp;P1;durP1;ratioP1;P2;durP2;ratioP2
45065;SDS011;30830;53.704;10.004;2023-03-14T00:00:33;9.30;;;2.63;;
45065;SDS011;30830;53.704;10.004;2023-03-14T00:02:59;8.68;;;2.67;;
45065;SDS011;30830;53.704;10.004;2023-03-14T00:05:25;6.05;;;2.25;;
45065;SDS011;30830;53.704;10.004;2023-03-14T00:07:50;6.38;;;2.67;;
45065;SDS011;30830;53.704;10.004;2023-03-14T00:10:16;8.90;;;2.25;;
45065;SDS011;30830;53.704;10.004;2023-03-14T00:12:42;7.13;;;2.13;;
45065;SDS011;30830;53.704;10.004;2023-03-14T00:15:09;9.40;;;2.97;;
45065;SDS011;30830;53.704;10.004;2023-03-14T00:17:35;6.72;;;2.33;;
45065;SDS011;30830;53.704;10.004;2023-03-14T00:20:02;4.68;;;2.67;;
45065;SDS011;30830;53.704;10.004;2023-03-14T00:22:33;7.43;;;2.72;;
45065;SDS011;30830;53.704;10.004;2023-03-14T00:24:59;5.75;;;2.45;;
45065;SDS011;30830;53.704;10.004;2023-03-14T00:27:25;5.50;;;2.50;;
45065;SDS011;30830;53.704;10.004;2023-03-14T00:29:50;3.38;;;2.50;;
45065;SDS011;30830;53.704;10.004;2023-03-14T00:32:16;5.88;;;2.35;;
45065;SDS011;30830;53.704;10.004;2023-03-14T00:34:41;7.20;;;2.85;;
45065;SDS011;30830;53.704;10.004;2023-03-14T00:37:07;4.85;;;2.92;;
45065;SDS011;30830;53.704;10.004;2023-03-14T00:39:33;8.25;;;3.05;;
45065;SDS011;30830;53.704;10.004;2023-03-14T00:41:58;6.47;;;2.75;;
45065;SDS011;30830;53.704;10.004;2023-03-14T00:44:24;5.78;;;2.28;;
45065;SDS011;30830;53.704;10.004;2023-03-14T00:46:49;4.75;;;2.08;;
45065;SDS011;30830;53.704;10.004;2023-03-14T00:49:15;7.00;;;2.90;;
45065;SDS011;30830;53.704;10.004;2023-03-14T00:51:41;6.68;;;2.92;;
45065;SDS011;30830;53.704;10.004;2023-03-14T00:54:06;8.32;;;2.25;;
45065;SDS011;30830;53.704;10.004;2023-03-14T00:56:32;9.35;;;2.25;;
45065;SDS011;30830;53.704;10.004;2023-03-14T00:58:57;8.80;;;2.60;;
45065;SDS011;30830;53.704;10.004;2023-03-14T01:01:23;9.25;;;3.17;;
45065;SDS011;30830;53.704;10.004;2023-03-14T01:03:53;5.18;;;2.50;;
45065;SDS011;30830;53.704;10.004;2023-03-14T01:06:24;6.15;;;2.17;;
45065;SDS011;30830;53.704;10.004;2023-03-14T01:08:51;7.47;;;3.20;;
45065;SDS011;30830;53.704;10.004;2023-03-14T01:11:19;9.10;;;3.13;;
45065;SDS011;30830;53.704;10.004;2023-03-14T01:13:47;8.55;;;2.40;;
45065;SDS011;30830;53.704;10.004;2023-03-14T01:16:13;7.90;;;2.63;;
45065;SDS011;30830;53.704;10.004;2023-03-14T01:18:40;9.25;;;2.35;;
45065;SDS011;30830;53.704;10.004;2023-03-14T01:21:13;10.27;;;2.28;;
45065;SDS011;30830;53.704;10.004;2023-03-14T01:26:11;8.75;;;2.72;;
45065;SDS011;30830;53.704;10.004;2023-03-14T01:28:38;7.45;;;2.40;;
45065;SDS011;30830;53.704;10.004;2023-03-14T01:31:06;7.32;;;3.00;;
45065;SDS011;30830;53.704;10.004;2023-03-14T01:33:33;7.38;;;2.92;;
45065;SDS011;30830;53.704;10.004;2023-03-14T01:35:59;10.10;;;2.50;;
45065;SDS011;30830;53.704;10.004;2023-03-14T01:38:27;7.03;;;2.70;;
45065;SDS011;30830;53.704;10.004;2023-03-14T01:40:55;7.53;;;3.05;;
45065;SDS011;30830;53.704;10.004;2023-03-14T01:43:21;9.18;;;2.80;;
45065;SDS011;30830;53.704;10.004;2023-03-14T01:48:40;9.02;;;3.05;;
45065;SDS011;30830;53.704;10.004;2023-03-14T01:57:05;7.80;;;2.50;;
45065;SDS011;30830;53.704;10.004;2023-03-14T02:00:12;11.63;;;2.20;;
45065;SDS011;30830;53.704;10.004;2023-03-14T02:02:40;9.77;;;2.78;;
45065;SDS011;30830;53.704;10.004;2023-03-14T02:05:09;4.35;;;2.40;;
45065;SDS011;30830;53.704;10.004;2023-03-14T02:07:46;3.78;;;2.00;;
45065;SDS011;30830;53.704;10.004;2023-03-14T02:10:15;5.95;;;1.92;;
45065;SDS011;30830;53.704;10.004;2023-03-14T02:12:44;6.72;;;2.65;;
45065;SDS011;30830;53.704;10.004;2023-03-14T02:15:11;4.03;;;2.20;;
45065;SDS011;30830;53.704;10.004;2023-03-14T02:17:36;5.93;;;2.55;;
45065;SDS011;30830;53.704;10.004;2023-03-14T02:22:52;4.60;;;2.00;;
45065;SDS011;30830;53.704;10.004;2023-03-14T02:27:59;4.30;;;2.10;;
45065;SDS011;30830;53.704;10.004;2023-03-14T02:30:26;5.45;;;2.47;;
45065;SDS011;30830;53.704;10.004;2023-03-14T02:32:55;6.80;;;2.42;;
45065;SDS011;30830;53.704;10.004;2023-03-14T02:35:29;4.63;;;2.53;;
45065;SDS011;30830;53.704;10.004;2023-03-14T02:38:00;7.95;;;2.58;;
45065;SDS011;30830;53.704;10.004;2023-03-14T02:40:28;5.15;;;2.80;;
45065;SDS011;30830;53.704;10.004;2023-03-14T02:42:53;6.63;;;3.30;;
45065;SDS011;30830;53.704;10.004;2023-03-14T02:45:25;8.15;;;2.83;;
45065;SDS011;30830;53.704;10.004;2023-03-14T02:48:02;8.02;;;2.80;;
45065;SDS011;30830;53.704;10.004;2023-03-14T02:50:32;5.53;;;2.08;;
45065;SDS011;30830;53.704;10.004;2023-03-14T02:52:59;6.63;;;3.10;;
45065;SDS011;30830;53.704;10.004;2023-03-14T02:55:24;5.45;;;2.42;;
45065;SDS011;30830;53.704;10.004;2023-03-14T02:57:51;5.35;;;2.97;;
45065;SDS011;30830;53.704;10.004;2023-03-14T03:00:17;6.88;;;3.28;;
45065;SDS011;30830;53.704;10.004;2023-03-14T03:02:44;5.32;;;3.25;;
45065;SDS011;30830;53.704;10.004;2023-03-14T03:05:10;4.28;;;2.50;;
45065;SDS011;30830;53.704;10.004;2023-03-14T03:07:35;7.13;;;3.08;;
45065;SDS011;30830;53.704;10.004;2023-03-14T03:10:01;7.40;;;3.55;;
45065;SDS011;30830;53.704;10.004;2023-03-14T03:12:27;5.43;;;2.70;;
45065;SDS011;30830;53.704;10.004;2023-03-14T03:14:53;7.65;;;2.90;;
45065;SDS011;30830;53.704;10.004;2023-03-14T03:17:18;9.40;;;3.10;;
45065;SDS011;30830;53.704;10.004;2023-03-14T03:19:44;7.38;;;2.75;;
45065;SDS011;30830;53.704;10.004;2023-03-14T03:22:09;8.68;;;3.10;;
45065;SDS011;30830;53.704;10.004;2023-03-14T03:24:35;6.90;;;3.40;;
45065;SDS011;30830;53.704;10.004;2023-03-14T03:27:00;6.75;;;3.22;;
45065;SDS011;30830;53.704;10.004;2023-03-14T03:29:26;7.95;;;3.50;;
45065;SDS011;30830;53.704;10.004;2023-03-14T03:31:52;8.95;;;3.72;;
45065;SDS011;30830;53.704;10.004;2023-03-14T03:34:18;6.80;;;3.50;;
45065;SDS011;30830;53.704;10.004;2023-03-14T03:36:43;8.02;;;3.45;;
45065;SDS011;30830;53.704;10.004;2023-03-14T03:39:09;5.60;;;3.13;;
45065;SDS011;30830;53.704;10.004;2023-03-14T03:41:34;4.20;;;2.85;;
45065;SDS011;30830;53.704;10.004;2023-03-14T03:44:00;6.70;;;3.72;;
45065;SDS011;30830;53.704;10.004;2023-03-14T03:46:25;5.57;;;3.40;;
45065;SDS011;30830;53.704;10.004;2023-03-14T03:48:55;5.05;;;3.17;;
45065;SDS011;30830;53.704;10.004;2023-03-14T03:51:21;6.53;;;3.03;;
45065;SDS011;30830;53.704;10.004;2023-03-14T03:53:46;5.80;;;3.20;;
45065;SDS011;30830;53.704;10.004;2023-03-14T03:56:12;3.42;;;2.70;;
45065;SDS011;30830;53.704;10.004;2023-03-14T03:58:38;6.55;;;2.83;;
45065;SDS011;30830;53.704;10.004;2023-03-14T04:01:04;7.65;;;3.25;;
45065;SDS011;30830;53.704;10.004;2023-03-14T04:03:31;6.10;;;2.88;;
45065;SDS011;30830;53.704;10.004;2023-03-14T04:06:01;5.15;;;2.22;;
45065;SDS011;30830;53.704;10.004;2023-03-14T04:08:33;6.65;;;3.17;;
45065;SDS011;30830;53.704;10.004;2023-03-14T04:10:59;5.15;;;3.13;;
45065;SDS011;30830;53.704;10.004;2023-03-14T04:13:26;3.70;;;2.45;;
45065;SDS011;30830;53.704;10.004;2023-03-14T04:15:52;8.52;;;2.53;;
45065;SDS011;30830;53.704;10.004;2023-03-14T04:18:19;6.97;;;3.08;;
45065;SDS011;30830;53.704;10.004;2023-03-14T04:20:45;7.60;;;3.25;;
45065;SDS011;30830;53.704;10.004;2023-03-14T04:23:15;6.38;;;2.72;;
45065;SDS011;30830;53.704;10.004;2023-03-14T04:25:40;8.55;;;3.28;;
45065;SDS011;30830;53.704;10.004;2023-03-14T04:28:06;8.43;;;3.45;;
45065;SDS011;30830;53.704;10.004;2023-03-14T04:30:31;7.05;;;2.85;;
45065;SDS011;30830;53.704;10.004;2023-03-14T04:32:57;8.30;;;2.92;;
45065;SDS011;30830;53.704;10.004;2023-03-14T04:35:22;6.82;;;2.83;;
45065;SDS011;30830;53.704;10.004;2023-03-14T04:37:48;9.10;;;3.40;;
45065;SDS011;30830;53.704;10.004;2023-03-14T04:40:14;6.00;;;3.20;;
45065;SDS011;30830;53.704;10.004;2023-03-14T04:42:40;5.13;;;2.60;;
45065;SDS011;30830;53.704;10.004;2023-03-14T04:45:06;7.30;;;2.55;;
45065;SDS011;30830;53.704;10.004;2023-03-14T04:47:33;4.32;;;1.85;;
45065;SDS011;30830;53.704;10.004;2023-03-14T04:49:58;2.15;;;1.20;;
45065;SDS011;30830;53.704;10.004;2023-03-14T04:52:24;2.20;;;1.10;;
45065;SDS011;30830;53.704;10.004;2023-03-14T04:54:49;2.03;;;0.70;;
45065;SDS011;30830;53.704;10.004;2023-03-14T04:57:15;2.15;;;0.93;;
45065;SDS011;30830;53.704;10.004;2023-03-14T04:59:41;0.93;;;0.70;;
45065;SDS011;30830;53.704;10.004;2023-03-14T05:02:06;2.50;;;1.10;;
45065;SDS011;30830;53.704;10.004;2023-03-14T05:04:32;2.45;;;1.00;;
45065;SDS011;30830;53.704;10.004;2023-03-14T05:06:58;2.08;;;0.77;;
45065;SDS011;30830;53.704;10.004;2023-03-14T05:09:24;2.72;;;0.50;;
45065;SDS011;30830;53.704;10.004;2023-03-14T05:11:50;1.00;;;0.80;;
45065;SDS011;30830;53.704;10.004;2023-03-14T05:14:16;2.17;;;0.98;;
45065;SDS011;30830;53.704;10.004;2023-03-14T05:16:41;4.05;;;0.98;;
45065;SDS011;30830;53.704;10.004;2023-03-14T05:19:07;4.07;;;0.95;;
45065;SDS011;30830;53.704;10.004;2023-03-14T05:21:33;1.83;;;0.77;;
45065;SDS011;30830;53.704;10.004;2023-03-14T05:23:58;2.45;;;0.98;;
45065;SDS011;30830;53.704;10.004;2023-03-14T05:26:24;1.38;;;0.68;;
45065;SDS011;30830;53.704;10.004;2023-03-14T05:28:49;3.15;;;1.08;;
45065;SDS011;30830;53.704;10.004;2023-03-14T05:31:15;4.22;;;0.98;;
45065;SDS011;30830;53.704;10.004;2023-03-14T05:33:40;2.55;;;1.00;;
45065;SDS011;30830;53.704;10.004;2023-03-14T05:36:06;2.72;;;1.08;;
45065;SDS011;30830;53.704;10.004;2023-03-14T05:38:32;1.48;;;0.90;;
45065;SDS011;30830;53.704;10.004;2023-03-14T05:40:58;2.10;;;0.90;;
45065;SDS011;30830;53.704;10.004;2023-03-14T05:43:24;2.13;;;0.93;;
45065;SDS011;30830;53.704;10.004;2023-03-14T05:45:49;3.97;;;1.20;;
45065;SDS011;30830;53.704;10.004;2023-03-14T05:48:15;3.22;;;1.38;;
45065;SDS011;30830;53.704;10.004;2023-03-14T05:50:41;1.88;;;1.38;;
45065;SDS011;30830;53.704;10.004;2023-03-14T05:53:07;2.05;;;1.50;;
45065;SDS011;30830;53.704;10.004;2023-03-14T05:55:33;2.80;;;1.70;;
45065;SDS011;30830;53.704;10.004;2023-03-14T05:57:58;2.50;;;1.80;;
45065;SDS011;30830;53.704;10.004;2023-03-14T06:00:24;4.07;;;2.45;;
45065;SDS011;30830;53.704;10.004;2023-03-14T06:02:49;4.22;;;2.45;;
45065;SDS011;30830;53.704;10.004;2023-03-14T06:05:15;4.15;;;1.90;;
45065;SDS011;30830;53.704;10.004;2023-03-14T06:07:41;4.07;;;2.25;;
45065;SDS011;30830;53.704;10.004;2023-03-14T06:10:06;3.65;;;2.53;;
45065;SDS011;30830;53.704;10.004;2023-03-14T06:12:32;3.40;;;2.03;;
45065;SDS011;30830;53.704;10.004;2023-03-14T06:14:58;3.83;;;2.63;;
45065;SDS011;30830;53.704;10.004;2023-03-14T06:17:23;4.63;;;2.60;;
45065;SDS011;30830;53.704;10.004;2023-03-14T06:19:49;7.18;;;2.70;;
45065;SDS011;30830;53.704;10.004;2023-03-14T06:22:15;3.72;;;3.28;;
45065;SDS011;30830;53.704;10.004;2023-03-14T06:24:40;5.57;;;3.78;;
45065;SDS011;30830;53.704;10.004;2023-03-14T06:27:06;7.45;;;3.53;;
45065;SDS011;30830;53.704;10.004;2023-03-14T06:29:31;6.80;;;3.80;;
45065;SDS011;30830;53.704;10.004;2023-03-14T06:31:57;5.55;;;4.70;;
45065;SDS011;30830;53.704;10.004;2023-03-14T06:34:22;5.00;;;4.45;;
45065;SDS011;30830;53.704;10.004;2023-03-14T06:36:48;7.93;;;4.70;;
45065;SDS011;30830;53.704;10.004;2023-03-14T06:39:14;8.15;;;4.93;;
45065;SDS011;30830;53.704;10.004;2023-03-14T06:41:39;6.95;;;4.80;;
45065;SDS011;30830;53.704;10.004;2023-03-14T06:44:05;7.80;;;4.95;;
45065;SDS011;30830;53.704;10.004;2023-03-14T06:46:30;7.18;;;4.72;;
45065;SDS011;30830;53.704;10.004;2023-03-14T06:48:56;7.85;;;5.20;;
45065;SDS011;30830;53.704;10.004;2023-03-14T06:51:22;9.38;;;6.07;;
45065;SDS011;30830;53.704;10.004;2023-03-14T06:53:47;6.68;;;5.68;;
45065;SDS011;30830;53.704;10.004;2023-03-14T06:56:13;7.75;;;5.03;;
45065;SDS011;30830;53.704;10.004;2023-03-14T06:58:38;9.15;;;5.43;;
45065;SDS011;30830;53.704;10.004;2023-03-14T07:01:04;9.13;;;6.18;;
45065;SDS011;30830;53.704;10.004;2023-03-14T07:03:30;8.98;;;5.75;;
45065;SDS011;30830;53.704;10.004;2023-03-14T07:05:56;8.82;;;4.95;;
45065;SDS011;30830;53.704;10.004;2023-03-14T07:08:22;6.95;;;4.60;;
45065;SDS011;30830;53.704;10.004;2023-03-14T07:10:47;9.40;;;5.55;;
45065;SDS011;30830;53.704;10.004;2023-03-14T07:13:13;8.45;;;5.75;;
45065;SDS011;30830;53.704;10.004;2023-03-14T07:15:39;8.48;;;5.07;;
45065;SDS011;30830;53.704;10.004;2023-03-14T07:18:04;8.63;;;4.40;;
45065;SDS011;30830;53.704;10.004;2023-03-14T07:20:30;6.47;;;4.20;;
45065;SDS011;30830;53.704;10.004;2023-03-14T07:22:57;6.88;;;3.83;;
45065;SDS011;30830;53.704;10.004;2023-03-14T07:25:24;5.38;;;3.60;;
45065;SDS011;30830;53.704;10.004;2023-03-14T07:27:50;6.55;;;3.05;;
45065;SDS011;30830;53.704;10.004;2023-03-14T07:30:16;8.57;;;4.30;;
45065;SDS011;30830;53.704;10.004;2023-03-14T07:32:42;6.97;;;3.25;;
45065;SDS011;30830;53.704;10.004;2023-03-14T07:35:08;4.60;;;3.13;;
45065;SDS011;30830;53.704;10.004;2023-03-14T07:37:33;7.43;;;3.42;;
45065;SDS011;30830;53.704;10.004;2023-03-14T07:39:59;8.18;;;3.63;;
45065;SDS011;30830;53.704;10.004;2023-03-14T07:42:25;5.13;;;2.92;;
45065;SDS011;30830;53.704;10.004;2023-03-14T07:44:50;7.38;;;3.30;;
45065;SDS011;30830;53.704;10.004;2023-03-14T07:47:16;7.05;;;2.72;;
45065;SDS011;30830;53.704;10.004;2023-03-14T07:49:41;6.25;;;2.58;;
45065;SDS011;30830;53.704;10.004;2023-03-14T07:52:07;8.70;;;2.20;;
45065;SDS011;30830;53.704;10.004;2023-03-14T07:54:32;2.92;;;1.95;;
45065;SDS011;30830;53.704;10.004;2023-03-14T07:56:58;6.80;;;2.40;;
45065;SDS011;30830;53.704;10.004;2023-03-14T07:59:25;4.53;;;2.47;;
45065;SDS011;30830;53.704;10.004;2023-03-14T08:01:51;5.90;;;2.42;;
45065;SDS011;30830;53.704;10.004;2023-03-14T08:04:17;7.57;;;2.92;;
45065;SDS011;30830;53.704;10.004;2023-03-14T08:06:43;3.22;;;1.95;;
45065;SDS011;30830;53.704;10.004;2023-03-14T08:09:08;5.53;;;2.47;;
45065;SDS011;30830;53.704;10.004;2023-03-14T08:11:34;6.70;;;3.78;;
45065;SDS011;30830;53.704;10.004;2023-03-14T08:13:59;5.43;;;2.55;;
45065;SDS011;30830;53.704;10.004;2023-03-14T08:16:25;3.83;;;2.42;;
45065;SDS011;30830;53.704;10.004;2023-03-14T08:18:51;7.15;;;2.60;;
45065;SDS011;30830;53.704;10.004;2023-03-14T08:21:16;4.20;;;2.20;;
45065;SDS011;30830;53.704;10.004;2023-03-14T08:23:42;4.40;;;2.40;;
45065;SDS011;30830;53.704;10.004;2023-03-14T08:26:07;5.32;;;2.55;;
45065;SDS011;30830;53.704;10.004;2023-03-14T08:28:33;4.43;;;2.53;;
45065;SDS011;30830;53.704;10.004;2023-03-14T08:30:59;4.38;;;2.05;;
45065;SDS011;30830;53.704;10.004;2023-03-14T08:33:26;3.55;;;2.03;;
45065;SDS011;30830;53.704;10.004;2023-03-14T08:35:53;4.20;;;2.00;;
45065;SDS011;30830;53.704;10.004;2023-03-14T08:38:19;5.63;;;1.65;;
45065;SDS011;30830;53.704;10.004;2023-03-14T08:40:45;4.80;;;1.85;;
45065;SDS011;30830;53.704;10.004;2023-03-14T08:43:10;5.75;;;1.75;;
45065;SDS011;30830;53.704;10.004;2023-03-14T08:45:36;5.00;;;1.65;;
45065;SDS011;30830;53.704;10.004;2023-03-14T08:48:01;3.47;;;1.42;;
45065;SDS011;30830;53.704;10.004;2023-03-14T08:50:28;2.17;;;1.27;;
45065;SDS011;30830;53.704;10.004;2023-03-14T08:52:53;2.45;;;1.55;;
45065;SDS011;30830;53.704;10.004;2023-03-14T08:55:19;3.13;;;1.50;;
45065;SDS011;30830;53.704;10.004;2023-03-14T08:57:45;5.43;;;2.28;;
45065;SDS011;30830;53.704;10.004;2023-03-14T09:00:11;3.95;;;1.70;;
45065;SDS011;30830;53.704;10.004;2023-03-14T09:02:40;6.72;;;1.80;;
45065;SDS011;30830;53.704;10.004;2023-03-14T09:05:06;4.25;;;1.92;;
45065;SDS011;30830;53.704;10.004;2023-03-14T09:07:33;2.55;;;2.05;;
45065;SDS011;30830;53.704;10.004;2023-03-14T09:09:58;4.85;;;2.90;;
45065;SDS011;30830;53.704;10.004;2023-03-14T09:12:24;7.35;;;2.58;;
45065;SDS011;30830;53.704;10.004;2023-03-14T09:14:49;5.07;;;2.00;;
45065;SDS011;30830;53.704;10.004;2023-03-14T09:17:15;4.25;;;2.20;;
45065;SDS011;30830;53.704;10.004;2023-03-14T09:19:41;4.00;;;2.25;;
45065;SDS011;30830;53.704;10.004;2023-03-14T09:22:06;4.63;;;2.38;;
45065;SDS011;30830;53.704;10.004;2023-03-14T09:24:32;4.30;;;2.50;;
45065;SDS011;30830;53.704;10.004;2023-03-14T09:26:57;6.88;;;2.47;;
45065;SDS011;30830;53.704;10.004;2023-03-14T09:29:23;10.70;;;3.70;;
45065;SDS011;30830;53.704;10.004;2023-03-14T09:31:49;8.90;;;2.58;;
45065;SDS011;30830;53.704;10.004;2023-03-14T09:34:15;7.47;;;3.20;;
45065;SDS011;30830;53.704;10.004;2023-03-14T09:36:40;6.97;;;2.50;;
45065;SDS011;30830;53.704;10.004;2023-03-14T09:39:09;4.90;;;2.95;;
45065;SDS011;30830;53.704;10.004;2023-03-14T09:41:36;4.50;;;2.58;;
45065;SDS011;30830;53.704;10.004;2023-03-14T09:44:15;2.20;;;1.13;;
45065;SDS011;30830;53.704;10.004;2023-03-14T09:46:45;4.50;;;1.13;;
45065;SDS011;30830;53.704;10.004;2023-03-14T09:49:22;3.50;;;0.95;;
45065;SDS011;30830;53.704;10.004;2023-03-14T09:52:26;1.58;;;0.60;;
45065;SDS011;30830;53.704;10.004;2023-03-14T09:54:59;2.70;;;1.00;;
45065;SDS011;30830;53.704;10.004;2023-03-14T09:57:32;2.95;;;0.95;;
45065;SDS011;30830;53.704;10.004;2023-03-14T10:00:02;1.90;;;0.80;;
45065;SDS011;30830;53.704;10.004;2023-03-14T10:02:38;1.75;;;0.82;;
45065;SDS011;30830;53.704;10.004;2023-03-14T10:05:07;1.50;;;0.85;;
45065;SDS011;30830;53.704;10.004;2023-03-14T10:07:39;3.05;;;0.75;;
45065;SDS011;30830;53.704;10.004;2023-03-14T10:10:09;2.45;;;0.63;;
45065;SDS011;30830;53.704;10.004;2023-03-14T10:12:38;1.70;;;0.57;;
45065;SDS011;30830;53.704;10.004;2023-03-14T10:15:05;2.88;;;0.70;;
45065;SDS011;30830;53.704;10.004;2023-03-14T10:17:38;1.77;;;0.75;;
45065;SDS011;30830;53.704;10.004;2023-03-14T10:20:05;1.92;;;0.55;;
45065;SDS011;30830;53.704;10.004;2023-03-14T10:22:31;1.23;;;0.90;;
45065;SDS011;30830;53.704;10.004;2023-03-14T10:25:06;1.15;;;0.50;;
45065;SDS011;30830;53.704;10.004;2023-03-14T10:28:03;0.32;;;0.32;;
45065;SDS011;30830;53.704;10.004;2023-03-14T10:30:30;1.30;;;0.80;;
45065;SDS011;30830;53.704;10.004;2023-03-14T10:33:37;1.30;;;0.50;;
45065;SDS011;30830;53.704;10.004;2023-03-14T10:36:00;3.50;;;0.60;;
45065;SDS011;30830;53.704;10.004;2023-03-14T10:38:46;0.50;;;0.50;;
45065;SDS011;30830;53.704;10.004;2023-03-14T10:41:16;1.30;;;0.25;;
45065;SDS011;30830;53.704;10.004;2023-03-14T10:43:50;0.50;;;0.30;;
45065;SDS011;30830;53.704;10.004;2023-03-14T10:46:18;2.53;;;0.85;;
45065;SDS011;30830;53.704;10.004;2023-03-14T10:48:45;1.23;;;0.40;;
45065;SDS011;30830;53.704;10.004;2023-03-14T10:51:18;2.35;;;0.73;;
45065;SDS011;30830;53.704;10.004;2023-03-14T10:56:24;2.33;;;0.63;;
45065;SDS011;30830;53.704;10.004;2023-03-14T10:58:51;0.57;;;0.28;;
45065;SDS011;30830;53.704;10.004;2023-03-14T11:09:59;1.40;;;0.20;;
45065;SDS011;30830;53.704;10.004;2023-03-14T11:19:20;3.17;;;0.30;;
45065;SDS011;30830;53.704;10.004;2023-03-14T11:21:37;2.40;;;0.63;;
45065;SDS011;30830;53.704;10.004;2023-03-14T11:24:33;4.22;;;0.60;;
45065;SDS011;30830;53.704;10.004;2023-03-14T11:35:43;6.30;;;0.85;;
45065;SDS011;30830;53.704;10.004;2023-03-14T11:38:28;2.35;;;1.00;;
45065;SDS011;30830;53.704;10.004;2023-03-14T11:41:12;3.63;;;0.88;;
45065;SDS011;30830;53.704;10.004;2023-03-14T11:43:56;2.20;;;0.57;;
45065;SDS011;30830;53.704;10.004;2023-03-14T11:51:35;1.23;;;0.70;;
45065;SDS011;30830;53.704;10.004;2023-03-14T11:54:07;2.40;;;0.60;;
45065;SDS011;30830;53.704;10.004;2023-03-14T11:59:23;4.47;;;1.38;;
45065;SDS011;30830;53.704;10.004;2023-03-14T12:01:56;6.05;;;1.20;;
45065;SDS011;30830;53.704;10.004;2023-03-14T12:07:16;3.80;;;0.80;;
45065;SDS011;30830;53.704;10.004;2023-03-14T12:09:48;4.47;;;1.15;;
45065;SDS011;30830;53.704;10.004;2023-03-14T12:12:18;7.07;;;1.73;;
45065;SDS011;30830;53.704;10.004;2023-03-14T12:14:50;2.58;;;0.80;;
45065;SDS011;30830;53.704;10.004;2023-03-14T12:17:20;6.55;;;1.10;;
45065;SDS011;30830;53.704;10.004;2023-03-14T12:20:01;6.95;;;0.80;;
45065;SDS011;30830;53.704;10.004;2023-03-14T12:22:33;6.40;;;1.60;;
45065;SDS011;30830;53.704;10.004;2023-03-14T12:30:18;3.80;;;1.05;;
45065;SDS011;30830;53.704;10.004;2023-03-14T12:33:11;9.80;;;1.35;;
45065;SDS011;30830;53.704;10.004;2023-03-14T12:35:45;5.70;;;1.40;;
45065;SDS011;30830;53.704;10.004;2023-03-14T12:41:20;5.70;;;1.63;;
45065;SDS011;30830;53.704;10.004;2023-03-14T12:43:54;4.70;;;1.52;;
45065;SDS011;30830;53.704;10.004;2023-03-14T12:46:27;5.93;;;1.50;;
45065;SDS011;30830;53.704;10.004;2023-03-14T12:51:40;10.93;;;2.25;;
45065;SDS011;30830;53.704;10.004;2023-03-14T12:59:46;6.35;;;1.77;;
45065;SDS011;30830;53.704;10.004;2023-03-14T13:02:43;3.17;;;1.55;;
45065;SDS011;30830;53.704;10.004;2023-03-14T13:05:11;9.52;;;2.28;;
45065;SDS011;30830;53.704;10.004;2023-03-14T13:10:28;11.60;;;2.30;;
45065;SDS011;30830;53.704;10.004;2023-03-14T13:12:56;6.75;;;1.60;;
45065;SDS011;30830;53.704;10.004;2023-03-14T13:15:31;5.88;;;1.75;;
45065;SDS011;30830;53.704;10.004;2023-03-14T13:18:08;8.40;;;2.08;;
45065;SDS011;30830;53.704;10.004;2023-03-14T13:20:42;4.15;;;1.70;;
45065;SDS011;30830;53.704;10.004;2023-03-14T13:23:24;10.63;;;2.13;;
45065;SDS011;30830;53.704;10.004;2023-03-14T13:25:51;9.02;;;1.92;;
45065;SDS011;30830;53.704;10.004;2023-03-14T13:28:17;8.25;;;2.42;;
45065;SDS011;30830;53.704;10.004;2023-03-14T13:30:44;8.65;;;1.88;;
45065;SDS011;30830;53.704;10.004;2023-03-14T13:33:21;10.60;;;2.20;;
45065;SDS011;30830;53.704;10.004;2023-03-14T13:35:57;9.50;;;1.08;;
45065;SDS011;30830;53.704;10.004;2023-03-14T13:38:26;3.92;;;1.15;;
45065;SDS011;30830;53.704;10.004;2023-03-14T13:40:56;4.38;;;1.27;;
45065;SDS011;30830;53.704;10.004;2023-03-14T13:48:33;5.95;;;1.20;;
45065;SDS011;30830;53.704;10.004;2023-03-14T13:51:10;9.45;;;1.42;;
45065;SDS011;30830;53.704;10.004;2023-03-14T13:53:56;5.30;;;1.33;;
45065;SDS011;30830;53.704;10.004;2023-03-14T13:56:27;11.52;;;1.73;;
45065;SDS011;30830;53.704;10.004;2023-03-14T13:58:55;5.53;;;1.75;;
45065;SDS011;30830;53.704;10.004;2023-03-14T14:01:33;8.48;;;2.17;;
45065;SDS011;30830;53.704;10.004;2023-03-14T14:04:05;7.70;;;1.48;;
45065;SDS011;30830;53.704;10.004;2023-03-14T14:06:37;8.93;;;1.73;;
45065;SDS011;30830;53.704;10.004;2023-03-14T14:09:38;5.80;;;1.83;;
45065;SDS011;30830;53.704;10.004;2023-03-14T14:12:05;7.75;;;1.25;;
45065;SDS011;30830;53.704;10.004;2023-03-14T14:14:48;9.57;;;2.10;;
45065;SDS011;30830;53.704;10.004;2023-03-14T14:17:38;4.05;;;1.38;;
45065;SDS011;30830;53.704;10.004;2023-03-14T14:22:46;4.40;;;1.90;;
45065;SDS011;30830;53.704;10.004;2023-03-14T14:25:13;2.15;;;1.33;;
45065;SDS011;30830;53.704;10.004;2023-03-14T14:27:41;8.98;;;1.95;;
45065;SDS011;30830;53.704;10.004;2023-03-14T14:32:43;5.78;;;1.52;;
45065;SDS011;30830;53.704;10.004;2023-03-14T14:35:10;4.90;;;1.85;;
45065;SDS011;30830;53.704;10.004;2023-03-14T14:37:51;7.25;;;1.98;;
45065;SDS011;30830;53.704;10.004;2023-03-14T14:40:25;8.10;;;1.73;;
45065;SDS011;30830;53.704;10.004;2023-03-14T14:42:53;7.32;;;1.40;;
45065;SDS011;30830;53.704;10.004;2023-03-14T14:45:20;8.32;;;1.60;;
45065;SDS011;30830;53.704;10.004;2023-03-14T14:48:10;4.75;;;1.08;;
45065;SDS011;30830;53.704;10.004;2023-03-14T14:50:48;8.38;;;1.42;;
45065;SDS011;30830;53.704;10.004;2023-03-14T14:53:26;3.58;;;0.70;;
45065;SDS011;30830;53.704;10.004;2023-03-14T14:55:55;4.68;;;0.88;;
45065;SDS011;30830;53.704;10.004;2023-03-14T14:58:30;3.70;;;1.05;;
45065;SDS011;30830;53.704;10.004;2023-03-14T15:03:47;3.05;;;1.00;;
45065;SDS011;30830;53.704;10.004;2023-03-14T15:06:16;5.32;;;1.00;;
45065;SDS011;30830;53.704;10.004;2023-03-14T15:08:42;6.18;;;1.38;;
45065;SDS011;30830;53.704;10.004;2023-03-14T15:11:20;3.75;;;1.05;;
45065;SDS011;30830;53.704;10.004;2023-03-14T15:13:47;3.45;;;1.60;;
45065;SDS011;30830;53.704;10.004;2023-03-14T15:16:18;5.40;;;1.92;;
45065;SDS011;30830;53.704;10.004;2023-03-14T15:18:47;8.20;;;1.55;;
45065;SDS011;30830;53.704;10.004;2023-03-14T15:21:18;4.40;;;1.42;;
45065;SDS011;30830;53.704;10.004;2023-03-14T15:23:43;5.88;;;1.55;;
45065;SDS011;30830;53.704;10.004;2023-03-14T15:26:13;3.70;;;1.08;;
45065;SDS011;30830;53.704;10.004;2023-03-14T15:28:42;6.25;;;1.88;;
45065;SDS011;30830;53.704;10.004;2023-03-14T15:31:08;9.18;;;2.30;;
45065;SDS011;30830;53.704;10.004;2023-03-14T15:33:35;10.82;;;1.95;;
45065;SDS011;30830;53.704;10.004;2023-03-14T15:36:01;7.32;;;1.63;;
45065;SDS011;30830;53.704;10.004;2023-03-14T15:38:28;7.47;;;1.83;;
45065;SDS011;30830;53.704;10.004;2023-03-14T15:40:53;8.00;;;2.30;;
45065;SDS011;30830;53.704;10.004;2023-03-14T15:43:19;4.07;;;1.55;;
45065;SDS011;30830;53.704;10.004;2023-03-14T15:45:45;7.28;;;1.55;;
45065;SDS011;30830;53.704;10.004;2023-03-14T15:48:12;6.47;;;1.35;;
45065;SDS011;30830;53.704;10.004;2023-03-14T15:50:41;7.45;;;1.60;;
45065;SDS011;30830;53.704;10.004;2023-03-14T15:53:06;5.53;;;1.40;;
45065;SDS011;30830;53.704;10.004;2023-03-14T15:55:32;5.40;;;1.08;;
45065;SDS011;30830;53.704;10.004;2023-03-14T15:57:58;12.73;;;1.38;;
45065;SDS011;30830;53.704;10.004;2023-03-14T16:00:24;7.53;;;1.85;;
45065;SDS011;30830;53.704;10.004;2023-03-14T16:02:49;3.42;;;1.35;;
45065;SDS011;30830;53.704;10.004;2023-03-14T16:05:16;6.85;;;2.17;;
45065;SDS011;30830;53.704;10.004;2023-03-14T16:07:43;7.47;;;2.38;;